Time;durP1;ratioP1;P1;durP2;ratioP2;P2;SDS_P1;SDS_P2;PMS_P1;PMS_P2;Temp;Humidity;BMP_temperature;BMP_pressure;BME280_temperature;BME280_humidity;BME280_pressure;Samples;Min_cycle;Max_cycle;Signal;HPM_P1;HPM_P2
2023/08/23 00:01:05;;;;;;;7.03;4.15;;;;;;;16.75;63.89;100597.98;1723458;83;21207;-54
2023/08/23 00:04:13;;;;;;;10.05;4.62;;;;;;;16.72;64.01;100598.41;1723631;83;21535;-54
2023/08/23 00:07:20;;;;;;;6.92;4.85;;;;;;;16.71;64.19;100603.63;1723673;83;21254;-53
2023/08/23 00:10:25;;;;;;;7.90;4.40;;;;;;;16.71;64.29;100597.23;1723717;83;21258;-55
2023/08/23 00:13:32;;;;;;;7.87;4.72;;;;;;;16.68;64.39;100596.28;1723675;83;21756;-55
2023/08/23 00:16:39;;;;;;;8.80;4.67;;;;;;;16.68;64.51;100599.05;1723602;83;21254;-55
2023/08/23 00:19:46;;;;;;;9.18;5.20;;;;;;;16.67;64.63;100597.31;1720511;83;21246;-55
2023/08/23 00:22:53;;;;;;;10.65;4.22;;;;;;;16.65;64.69;100600.84;1715422;83;21378;-55
2023/08/23 00:25:58;;;;;;;8.05;5.08;;;;;;;16.62;64.71;100601.27;1715620;83;21386;-55
2023/08/23 00:29:06;;;;;;;8.60;5.37;;;;;;;16.58;64.72;100598.58;1715430;83;21392;-54
2023/08/23 00:32:12;;;;;;;7.30;4.67;;;;;;;16.53;64.76;100592.83;1715572;83;21351;-53
2023/08/23 00:35:19;;;;;;;6.80;4.37;;;;;;;16.49;64.79;100590.17;1715390;83;21369;-54
2023/08/23 00:38:25;;;;;;;7.70;4.72;;;;;;;16.47;64.92;100593.15;1715544;83;21331;-53
2023/08/23 00:41:31;;;;;;;9.30;4.80;;;;;;;16.45;65.01;100596.64;1715517;83;21464;-54
2023/08/23 00:44:38;;;;;;;9.00;4.72;;;;;;;16.42;65.14;100595.12;1715448;83;21455;-53
2023/08/23 00:47:45;;;;;;;8.63;4.87;;;;;;;16.44;65.25;100592.16;1715368;83;21353;-53
2023/08/23 00:50:51;;;;;;;7.87;4.85;;;;;;;16.40;65.29;100586.70;1715453;83;21409;-53
2023/08/23 00:53:58;;;;;;;8.33;4.53;;;;;;;16.39;65.40;100583.08;1715850;83;21991;-54
2023/08/23 00:57:06;;;;;;;6.55;4.92;;;;;;;16.38;65.52;100595.20;1715355;83;21235;-54
2023/08/23 01:00:15;;;;;;;6.35;4.90;;;;;;;16.37;65.64;100590.75;1717261;83;21855;-53
2023/08/23 01:03:22;;;;;;;7.42;5.10;;;;;;;16.39;65.84;100596.90;1715336;83;21890;-53
2023/08/23 01:06:36;;;;;;;10.63;5.17;;;;;;;16.39;66.02;100594.13;1715428;83;21967;-54
2023/08/23 01:10:17;;;;;;;7.42;4.55;;;;;;;16.41;66.20;100601.70;1716360;82;21413;-54
2023/08/23 01:13:55;;;;;;;7.60;5.08;;;;;;;16.43;66.30;100600.97;1715465;83;21441;-53
2023/08/23 01:17:01;;;;;;;8.33;4.95;;;;;;;16.45;66.33;100606.31;1714898;83;21224;-53
2023/08/23 01:20:07;;;;;;;8.98;4.25;;;;;;;16.42;66.29;100607.56;1716522;83;21374;-53
2023/08/23 01:23:23;;;;;;;7.50;4.47;;;;;;;16.41;66.36;100601.70;1712605;84;21386;-54
2023/08/23 01:26:29;;;;;;;6.25;4.70;;;;;;;16.41;66.42;100603.63;1712999;83;21394;-54
2023/08/23 01:29:36;;;;;;;7.80;4.83;;;;;;;16.40;66.50;100606.05;1712980;83;21355;-54
2023/08/23 01:33:09;;;;;;;6.15;4.28;;;;;;;16.40;66.67;100610.19;1712909;83;21398;-54
2023/08/23 01:36:30;;;;;;;6.85;4.80;;;;;;;16.39;66.82;100605.19;1713213;83;21370;-54
2023/08/23 01:39:36;;;;;;;7.25;4.20;;;;;;;16.41;66.89;100600.86;1713070;83;21932;-54
2023/08/23 01:42:42;;;;;;;7.67;4.75;;;;;;;16.43;67.02;100600.97;1712973;83;21402;-54
2023/08/23 01:45:49;;;;;;;7.22;5.00;;;;;;;16.44;67.10;100604.07;1713193;83;21413;-54
2023/08/23 01:48:55;;;;;;;5.87;4.50;;;;;;;16.43;67.12;100605.11;1712806;83;21362;-54
2023/08/23 01:52:00;;;;;;;7.70;4.28;;;;;;;16.43;67.06;100607.88;1712989;83;21844;-54
2023/08/23 01:55:06;;;;;;;6.78;4.60;;;;;;;16.40;67.03;100602.77;1712920;83;21413;-55
2023/08/23 01:58:12;;;;;;;5.50;4.35;;;;;;;16.39;67.02;100594.69;1707071;84;21401;-55
2023/08/23 02:01:19;;;;;;;7.03;5.45;;;;;;;16.36;67.05;100600.63;1675486;84;21412;-61
2023/08/23 02:04:25;;;;;;;7.90;4.17;;;;;;;16.32;67.03;100600.19;1683325;84;21405;-55
2023/08/23 02:07:33;;;;;;;6.40;4.85;;;;;;;16.30;67.12;100602.30;1705277;84;21235;-55
2023/08/23 02:10:39;;;;;;;5.22;4.40;;;;;;;16.30;67.34;100600.05;1705549;83;21419;-55
2023/08/23 02:13:45;;;;;;;6.95;4.53;;;;;;;16.31;67.48;100605.41;1705840;83;21378;-54
2023/08/23 02:16:52;;;;;;;6.58;4.40;;;;;;;16.32;67.63;100600.70;1705420;83;21315;-55
2023/08/23 02:20:00;;;;;;;7.22;4.50;;;;;;;16.33;67.71;100599.12;1706045;83;21363;-55
2023/08/23 02:23:06;;;;;;;6.50;4.80;;;;;;;16.34;67.74;100604.13;1706572;83;21382;-55
2023/08/23 02:26:11;;;;;;;5.30;4.58;;;;;;;16.33;67.77;100603.27;1709215;83;21263;-55
2023/08/23 02:29:17;;;;;;;6.78;4.95;;;;;;;16.33;67.82;100606.58;1713855;83;21393;-54
2023/08/23 02:32:25;;;;;;;7.03;4.55;;;;;;;16.31;67.88;100609.55;1705201;84;21871;-54
2023/08/23 02:35:31;;;;;;;10.58;5.08;;;;;;;16.28;67.87;100606.34;1707515;84;21252;-54
2023/08/23 02:38:36;;;;;;;10.38;5.53;;;;;;;16.24;67.89;100605.89;1704773;84;21232;-54
2023/08/23 02:41:44;;;;;;;10.78;7.47;;;;;;;16.24;67.97;100605.89;1707306;84;21386;-55
2023/08/23 02:44:51;;;;;;;14.55;8.10;;;;;;;16.23;67.98;100600.58;1687060;83;21223;-54
2023/08/23 02:47:57;;;;;;;18.00;10.82;;;;;;;16.22;68.04;100602.48;1655081;86;21422;-54
2023/08/23 02:51:03;;;;;;;16.90;11.53;;;;;;;16.22;68.07;100601.65;1704853;84;21251;-54
2023/08/23 02:54:09;;;;;;;14.55;9.60;;;;;;;16.21;68.17;100602.17;1704541;84;21266;-54
2023/08/23 02:57:15;;;;;;;14.13;8.80;;;;;;;16.22;68.28;100605.80;1712551;84;21417;-55
2023/08/23 03:00:21;;;;;;;11.22;6.30;;;;;;;16.22;68.36;100606.63;1717849;83;21235;-53
2023/08/23 03:03:27;;;;;;;9.50;5.72;;;;;;;16.24;68.37;100613.32;1725626;82;21409;-55
2023/08/23 03:06:35;;;;;;;7.17;4.83;;;;;;;16.25;68.43;100602.06;1717927;83;21263;-54
2023/08/23 03:09:40;;;;;;;7.58;4.80;;;;;;;16.27;68.46;100611.00;1718068;83;21322;-55
2023/08/23 03:12:47;;;;;;;8.95;5.20;;;;;;;16.29;68.51;100610.28;1706955;82;21292;-54
2023/08/23 03:15:52;;;;;;;8.98;5.25;;;;;;;16.31;68.52;100619.73;1706952;82;21223;-53
2023/08/23 03:18:59;;;;;;;7.10;4.62;;;;;;;16.34;68.55;100618.80;1688056;83;21239;-54
2023/08/23 03:22:04;;;;;;;8.20;4.45;;;;;;;16.38;68.59;100615.93;1706202;83;21243;-54
2023/08/23 03:25:09;;;;;;;6.35;4.50;;;;;;;16.47;68.66;100622.69;1702794;83;22097;-53
2023/08/23 03:28:15;;;;;;;6.75;4.78;;;;;;;16.53;68.73;100621.33;1704537;83;21760;-54
2023/08/23 03:31:20;;;;;;;7.92;4.47;;;;;;;16.57;68.77;100602.42;1705080;83;21876;-57
2023/08/23 03:34:26;;;;;;;7.75;4.20;;;;;;;16.61;68.75;100595.40;1705310;83;21223;-54
2023/08/23 03:37:32;;;;;;;6.85;4.35;;;;;;;16.63;68.73;100590.52;1707305;83;21223;-54
2023/08/23 03:40:44;;;;;;;10.60;5.95;;;;;;;16.65;68.74;100596.70;1705532;83;21366;-53
2023/08/23 03:43:50;;;;;;;26.30;12.98;;;;;;;16.67;68.75;100605.61;1705473;83;21430;-54
2023/08/23 03:46:56;;;;;;;21.50;10.90;;;;;;;16.68;68.79;100607.33;1707487;84;21228;-54
2023/08/23 03:50:02;;;;;;;16.27;9.35;;;;;;;16.71;68.85;100620.73;1705855;83;21303;-54
2023/08/23 03:53:08;;;;;;;18.65;9.45;;;;;;;16.74;68.90;100614.27;1705392;83;22131;-54
2023/08/23 03:56:14;;;;;;;13.32;7.97;;;;;;;16.77;68.94;100616.60;1705327;83;21189;-54
2023/08/23 03:59:20;;;;;;;10.13;5.95;;;;;;;16.82;69.00;100629.27;1705397;83;21481;-54
2023/08/23 04:02:27;;;;;;;15.28;6.03;;;;;;;16.87;69.08;100632.23;1705269;83;21863;-53
2023/08/23 04:05:34;;;;;;;6.80;5.10;;;;;;;16.94;69.14;100635.01;1705223;83;21369;-55
2023/08/23 04:08:40;;;;;;;7.67;4.95;;;;;;;17.01;69.19;100649.71;1705287;83;21335;-54
2023/08/23 04:11:46;;;;;;;6.80;4.40;;;;;;;17.06;69.16;100649.94;1705767;84;21355;-54
2023/08/23 04:14:52;;;;;;;8.43;4.25;;;;;;;17.12;69.17;100642.17;1705391;83;21442;-54
2023/08/23 04:17:58;;;;;;;8.90;4.50;;;;;;;17.18;69.18;100632.49;1705239;83;21235;-54
2023/08/23 04:21:08;;;;;;;7.42;4.47;;;;;;;17.29;69.25;100628.23;1707447;84;21264;-54
2023/08/23 04:24:13;;;;;;;6.50;4.50;;;;;;;17.39;69.28;100625.89;1703031;84;21374;-54
2023/08/23 04:27:18;;;;;;;6.45;4.55;;;;;;;17.50;69.32;100641.88;1708931;83;21377;-54
2023/08/23 04:30:25;;;;;;;8.25;4.65;;;;;;;17.61;69.34;100649.53;1717966;83;21234;-54
2023/08/23 04:33:34;;;;;;;6.95;4.70;;;;;;;17.71;69.34;100658.27;1717991;83;21223;-53
2023/08/23 04:36:40;;;;;;;6.80;4.40;;;;;;;17.79;69.30;100653.89;1742245;82;21254;-53
2023/08/23 04:39:45;;;;;;;13.53;4.47;;;;;;;17.89;69.34;100661.20;1731294;82;22275;-53
2023/08/23 04:42:51;;;;;;;10.53;4.22;;;;;;;17.97;69.27;100658.72;1739005;82;21547;-54
2023/08/23 04:45:56;;;;;;;8.10;5.10;;;;;;;18.03;69.20;100660.09;1735848;82;21195;-54
2023/08/23 04:49:01;;;;;;;6.92;4.28;;;;;;;18.08;69.18;100676.92;1744739;82;21267;-53
2023/08/23 04:52:09;;;;;;;9.93;4.72;;;;;;;18.14;69.20;100673.83;1737442;82;21242;-54
2023/08/23 04:55:16;;;;;;;6.67;4.20;;;;;;;18.16;69.21;100652.27;1736107;81;21186;-54
2023/08/23 04:58:22;;;;;;;5.85;4.20;;;;;;;18.19;69.16;100652.69;1737738;80;21274;-54
2023/08/23 05:01:27;;;;;;;13.30;6.62;;;;;;;18.23;69.19;100652.59;1737580;80;21405;-50
2023/08/23 05:04:33;;;;;;;8.05;5.30;;;;;;;18.26;69.21;100647.99;1745438;80;21740;-52
2023/08/23 05:07:44;;;;;;;7.58;5.05;;;;;;;18.31;69.18;100649.58;1731667;81;21210;-53
2023/08/23 05:10:49;;;;;;;5.60;4.12;;;;;;;18.38;69.20;100657.34;1734672;81;21211;-52
2023/08/23 05:13:56;;;;;;;6.58;4.03;;;;;;;18.46;69.20;100663.16;1720483;81;21227;-59
2023/08/23 05:17:03;;;;;;;6.12;4.30;;;;;;;18.52;69.21;100661.75;1740328;82;21381;-56
2023/08/23 05:20:10;;;;;;;5.95;4.08;;;;;;;18.57;69.20;100661.09;1738596;81;21259;-57
2023/08/23 05:23:15;;;;;;;6.00;4.08;;;;;;;18.62;69.23;100668.21;1732290;80;21424;-56
2023/08/23 05:26:23;;;;;;;6.15;3.87;;;;;;;18.65;69.30;100663.08;1716975;82;21233;-56
2023/08/23 05:29:29;;;;;;;6.97;4.25;;;;;;;18.70;69.37;100668.82;1716345;81;21217;-57
2023/08/23 05:32:37;;;;;;;8.18;4.20;;;;;;;18.75;69.42;100672.31;1707074;82;21288;-58
2023/08/23 05:35:48;;;;;;;6.75;4.05;;;;;;;18.80;69.43;100681.69;1714165;81;21259;-56
2023/08/23 05:38:57;;;;;;;6.30;4.28;;;;;;;18.81;69.40;100681.98;1679939;83;21840;-55
2023/08/23 05:42:05;;;;;;;5.70;4.00;;;;;;;18.84;69.44;100678.77;1647177;85;21253;-56
2023/08/23 05:45:12;;;;;;;5.72;3.90;;;;;;;18.89;69.51;100678.95;1681123;83;21407;-56
2023/08/23 05:48:18;;;;;;;6.97;3.80;;;;;;;18.94;69.56;100676.89;1688668;83;21433;-56
2023/08/23 05:51:23;;;;;;;8.08;4.67;;;;;;;18.99;69.57;100675.17;1671535;83;21265;-56
2023/08/23 05:54:31;;;;;;;8.63;4.70;;;;;;;19.05;69.66;100665.09;1675098;83;21829;-56
2023/08/23 05:57:38;;;;;;;10.15;3.77;;;;;;;19.13;69.73;100658.73;1669454;85;21209;-56
2023/08/23 06:00:44;;;;;;;5.97;3.80;;;;;;;19.24;69.83;100666.87;1665460;85;21241;-56
2023/08/23 06:03:51;;;;;;;11.80;4.20;;;;;;;19.35;69.92;100670.34;1647238;83;21252;-56
2023/08/23 06:06:58;;;;;;;8.00;4.00;;;;;;;19.46;69.96;100669.60;1675075;85;21442;-55
2023/08/23 06:10:03;;;;;;;5.25;3.72;;;;;;;19.58;69.98;100672.50;1661498;85;21228;-56
2023/08/23 06:13:08;;;;;;;11.15;6.70;;;;;;;19.68;69.99;100661.17;1644621;86;21773;-56
2023/08/23 06:16:14;;;;;;;7.08;3.98;;;;;;;19.81;69.97;100666.61;1678107;82;21231;-56
2023/08/23 06:19:21;;;;;;;6.53;3.20;;;;;;;19.91;69.95;100657.75;1640422;85;21576;-56
2023/08/23 06:22:27;;;;;;;4.58;3.30;;;;;;;20.00;69.86;100657.75;1706375;81;21227;-55
2023/08/23 06:25:34;;;;;;;7.95;3.02;;;;;;;20.10;69.82;100669.20;1727322;82;21198;-57
2023/08/23 06:28:40;;;;;;;7.17;2.90;;;;;;;20.18;69.75;100673.09;1688125;83;21755;-56
2023/08/23 06:31:47;;;;;;;5.92;3.33;;;;;;;20.25;69.70;100671.94;1727623;81;21203;-56
2023/08/23 06:34:53;;;;;;;5.20;3.30;;;;;;;20.32;69.62;100671.86;1687563;84;21227;-55
2023/08/23 06:37:59;;;;;;;4.45;2.98;;;;;;;20.39;69.49;100674.03;1746234;81;21851;-57
2023/08/23 06:41:05;;;;;;;9.65;3.47;;;;;;;20.45;69.46;100675.88;1744548;81;21211;-57
2023/08/23 06:44:10;;;;;;;4.85;3.15;;;;;;;20.50;69.37;100686.59;1743655;81;21196;-56
2023/08/23 06:47:15;;;;;;;7.15;3.80;;;;;;;20.59;69.35;100678.80;1744981;81;21306;-57
2023/08/23 06:50:22;;;;;;;4.30;2.50;;;;;;;20.69;69.36;100673.54;1737415;82;21749;-57
2023/08/23 06:53:28;;;;;;;5.70;3.37;;;;;;;20.82;69.31;100670.55;1677378;83;21225;-55
2023/08/23 06:56:53;;;;;;;8.88;3.47;;;;;;;20.95;69.23;100664.80;1655891;84;21224;-57
2023/08/23 07:00:04;;;;;;;7.28;3.40;;;;;;;21.05;69.09;100674.87;1718094;83;21261;-55
2023/08/23 07:03:11;;;;;;;7.25;3.50;;;;;;;21.16;68.94;100670.41;1695841;83;21426;-57
2023/08/23 07:06:22;;;;;;;5.47;2.92;;;;;;;21.24;68.82;100668.15;1671785;84;22111;-58
2023/08/23 07:09:30;;;;;;;6.92;3.62;;;;;;;21.36;68.73;100662.05;1665230;85;21778;-60
2023/08/23 07:12:48;;;;;;;8.83;3.60;;;;;;;21.46;68.60;100663.72;1668920;85;21292;-59
2023/08/23 07:15:55;;;;;;;8.63;3.20;;;;;;;21.53;68.44;100668.61;1711759;82;21251;-59
2023/08/23 07:19:03;;;;;;;11.68;4.25;;;;;;;21.60;68.28;100671.29;1717742;82;21216;-58
2023/08/23 07:22:10;;;;;;;6.28;2.87;;;;;;;21.67;68.15;100674.29;1738079;80;21919;-57
2023/08/23 07:25:20;;;;;;;7.00;2.80;;;;;;;21.72;67.93;100667.98;1679889;83;21247;-58
2023/08/23 07:28:27;;;;;;;5.70;2.70;;;;;;;21.77;67.78;100673.72;1688065;82;21273;-58
2023/08/23 07:31:34;;;;;;;5.35;2.70;;;;;;;21.83;67.68;100669.42;1738407;80;21223;-55
2023/08/23 07:34:41;;;;;;;5.05;2.52;;;;;;;21.94;67.58;100674.16;1741183;81;21784;-58
2023/08/23 07:37:48;;;;;;;5.53;2.55;;;;;;;22.06;67.46;100680.56;1708909;82;21475;-58
2023/08/23 07:40:55;;;;;;;6.30;2.80;;;;;;;22.11;67.19;100682.08;1701475;82;21730;-55
2023/08/23 07:44:03;;;;;;;12.53;5.53;;;;;;;22.15;66.95;100676.30;1647253;85;21315;-61
2023/08/23 07:47:12;;;;;;;6.85;3.02;;;;;;;22.22;66.79;100673.39;1685957;84;21354;-58
2023/08/23 07:50:20;;;;;;;5.97;2.60;;;;;;;22.34;66.71;100669.19;1677947;84;21533;-56
2023/08/23 07:53:30;;;;;;;6.22;2.45;;;;;;;22.48;66.62;100677.59;1682911;83;21267;-59
2023/08/23 07:56:39;;;;;;;5.35;2.47;;;;;;;22.61;66.45;100675.95;1688447;83;21316;-58
2023/08/23 07:59:47;;;;;;;5.53;2.40;;;;;;;22.73;66.04;100685.13;1695482;83;21256;-58
2023/08/23 08:02:56;;;;;;;5.50;2.50;;;;;;;22.80;65.71;100678.88;1693501;83;21252;-58
2023/08/23 08:06:02;;;;;;;7.10;2.70;;;;;;;22.97;65.64;100674.18;1716599;82;21272;-57
2023/08/23 08:09:08;;;;;;;3.60;2.30;;;;;;;23.15;65.42;100680.97;1724444;82;21258;-59
2023/08/23 08:12:17;;;;;;;6.58;2.35;;;;;;;23.22;65.07;100681.11;1727587;82;21621;-58
2023/08/23 08:15:25;;;;;;;5.70;2.27;;;;;;;23.22;64.61;100688.63;1722278;82;21753;-57
2023/08/23 08:18:31;;;;;;;4.80;2.20;;;;;;;23.11;64.15;100685.34;1722202;80;21261;-57
2023/08/23 08:21:37;;;;;;;5.37;2.40;;;;;;;23.06;63.96;100679.12;1670176;84;21602;-59
2023/08/23 08:24:43;;;;;;;3.72;2.10;;;;;;;23.11;63.87;100672.77;1674754;84;21249;-58
2023/08/23 08:27:49;;;;;;;5.53;1.85;;;;;;;23.16;63.77;100674.27;1668929;84;21239;-58
2023/08/23 08:30:55;;;;;;;3.85;1.90;;;;;;;23.23;63.57;100670.22;1667906;80;21217;-58
2023/08/23 08:34:02;;;;;;;4.42;2.20;;;;;;;23.29;63.28;100663.64;1667911;83;21253;-58
2023/08/23 08:37:11;;;;;;;4.10;1.77;;;;;;;23.38;63.13;100664.09;1703995;83;21598;-58
2023/08/23 08:40:21;;;;;;;4.90;1.92;;;;;;;23.45;62.88;100642.43;1659078;84;21299;-63
2023/08/23 08:43:30;;;;;;;5.50;2.02;;;;;;;23.52;62.67;100649.55;1694167;83;21805;-55
2023/08/23 08:46:38;;;;;;;3.60;1.85;;;;;;;23.60;62.35;100651.92;1705178;83;21495;-55
2023/08/23 08:49:46;;;;;;;4.05;1.95;;;;;;;23.66;62.05;100642.22;1684270;84;21218;-57
2023/08/23 08:52:53;;;;;;;5.10;2.00;;;;;;;23.73;61.80;100636.74;1715609;82;21749;-56
2023/08/23 08:59:46;;;;;;;3.75;1.95;;;;;;;23.66;61.20;100655.62;1712362;83;21208;-57
2023/08/23 09:02:51;;;;;;;5.17;1.95;;;;;;;23.69;60.87;100652.31;1713054;82;21286;-56
2023/08/23 09:05:58;;;;;;;6.60;1.70;;;;;;;23.68;60.69;100652.03;1716914;83;21685;-54
2023/08/23 09:09:04;;;;;;;6.37;1.98;;;;;;;23.69;60.54;100651.49;1716881;83;21274;-54
2023/08/23 09:12:12;;;;;;;4.55;1.98;;;;;;;23.72;60.33;100639.25;1717088;83;21749;-53
2023/08/23 09:15:24;;;;;;;2.50;1.72;;;;;;;23.77;60.09;100646.87;1699244;83;21211;-53
2023/08/23 09:18:32;;;;;;;3.50;1.85;;;;;;;23.82;59.89;100639.39;1717596;83;21294;-53
2023/08/23 09:21:37;;;;;;;4.08;2.02;;;;;;;23.89;59.61;100656.00;1717228;83;21278;-55
2023/08/23 09:24:43;;;;;;;4.92;1.70;;;;;;;23.89;59.35;100641.47;1688325;85;21193;-54
2023/08/23 09:27:48;;;;;;;4.83;1.40;;;;;;;23.95;59.11;100647.44;1699386;83;21211;-54
2023/08/23 09:30:57;;;;;;;4.22;1.57;;;;;;;23.97;58.80;100647.20;1707945;81;21441;-53
2023/08/23 09:34:03;;;;;;;2.77;1.70;;;;;;;23.96;58.54;100644.92;1713960;83;21283;-54
2023/08/23 09:37:16;;;;;;;5.33;1.80;;;;;;;24.03;58.41;100648.43;1684438;84;21954;-54
2023/08/23 09:40:32;;;;;;;3.12;1.70;;;;;;;24.11;58.13;100648.53;1742299;82;21239;-54
2023/08/23 09:43:38;;;;;;;5.70;1.62;;;;;;;24.21;57.93;100645.35;1685876;84;21275;-53
2023/08/23 09:46:46;;;;;;;2.58;1.50;;;;;;;24.32;57.67;100647.73;1685851;84;21271;-55
2023/08/23 09:49:53;;;;;;;3.08;1.60;;;;;;;24.44;57.46;100649.29;1690497;85;21385;-54
2023/08/23 09:53:08;;;;;;;7.30;1.80;;;;;;;24.50;57.10;100644.05;1670660;85;21890;-55
2023/08/23 09:56:15;;;;;;;3.70;1.62;;;;;;;24.57;56.96;100643.85;1704326;83;21594;-55
2023/08/23 09:59:21;;;;;;;2.92;1.55;;;;;;;24.68;56.67;100636.75;1713775;83;22124;-54
2023/08/23 10:02:28;;;;;;;5.50;1.57;;;;;;;24.72;56.27;100625.30;1658110;84;21774;-55
2023/08/23 10:05:34;;;;;;;3.10;1.77;;;;;;;24.70;55.89;100623.34;1701462;82;21251;-55
2023/08/23 10:08:41;;;;;;;3.87;1.50;;;;;;;24.58;55.60;100630.13;1676661;85;21761;-55
2023/08/23 10:11:49;;;;;;;3.75;2.08;;;;;;;24.60;55.52;100634.92;1717072;83;21223;-55
2023/08/23 10:14:56;;;;;;;11.48;5.75;;;;;;;24.68;55.37;100626.95;1746419;81;21658;-55
2023/08/23 10:18:03;;;;;;;4.65;1.85;;;;;;;24.81;55.19;100635.50;1740694;82;21306;-55
2023/08/23 10:21:11;;;;;;;7.40;4.33;;;;;;;24.90;54.90;100630.56;1727788;81;21291;-55
2023/08/23 10:24:16;;;;;;;4.15;1.98;;;;;;;24.95;54.60;100627.83;1731372;81;21581;-56
2023/08/23 10:27:26;;;;;;;5.60;2.62;;;;;;;24.99;54.32;100619.17;1738287;80;21785;-56
2023/08/23 10:30:34;;;;;;;3.35;1.57;;;;;;;25.01;54.05;100628.70;1726281;80;21263;-55
2023/08/23 10:33:48;;;;;;;2.27;1.60;;;;;;;24.97;53.72;100619.98;1687291;83;21208;-56
2023/08/23 10:36:53;;;;;;;2.72;1.60;;;;;;;25.13;53.64;100618.75;1700762;83;21223;-57
2023/08/23 10:40:02;;;;;;;5.30;1.70;;;;;;;25.29;53.36;100641.61;1676234;83;21242;-57
2023/08/23 10:43:23;;;;;;;3.80;1.60;;;;;;;25.35;53.07;100616.75;1712031;82;21229;-57
2023/08/23 10:46:30;;;;;;;4.47;1.60;;;;;;;25.46;52.88;100617.13;1711835;81;21250;-57
2023/08/23 10:49:37;;;;;;;3.05;1.42;;;;;;;25.62;52.69;100625.95;1723387;83;21211;-56
2023/08/23 10:52:41;;;;;;;4.70;1.72;;;;;;;25.66;52.32;100629.36;1704583;83;21662;-56
2023/08/23 10:55:48;;;;;;;5.12;1.55;;;;;;;25.68;52.18;100624.33;1715221;81;21332;-56
2023/08/23 10:58:53;;;;;;;2.20;1.42;;;;;;;25.65;51.77;100626.81;1721143;83;21759;-55
2023/08/23 11:01:59;;;;;;;2.60;1.50;;;;;;;25.50;51.48;100621.10;1723832;83;21204;-55
2023/08/23 11:05:06;;;;;;;3.60;1.80;;;;;;;25.47;51.37;100620.20;1714224;81;21745;-54
2023/08/23 11:08:13;;;;;;;3.67;1.52;;;;;;;25.60;51.30;100618.36;1690952;82;21876;-55
2023/08/23 11:11:20;;;;;;;4.67;1.60;;;;;;;25.79;51.29;100610.66;1669139;82;21270;-56
2023/08/23 11:14:27;;;;;;;5.85;1.70;;;;;;;25.99;51.16;100616.98;1690399;84;21228;-56
2023/08/23 11:17:34;;;;;;;5.87;2.00;;;;;;;26.01;50.73;100611.95;1697671;83;21192;-55
2023/08/23 11:20:40;;;;;;;2.98;1.75;;;;;;;26.08;50.59;100612.57;1661804;84;21246;-57
2023/08/23 11:23:47;;;;;;;4.22;2.10;;;;;;;26.16;50.38;100615.69;1701349;84;21291;-56
2023/08/23 11:26:52;;;;;;;2.77;1.50;;;;;;;26.20;50.13;100611.78;1694134;84;21399;-58
2023/08/23 11:29:58;;;;;;;5.92;1.70;;;;;;;26.22;49.99;100609.55;1709275;81;21752;-56
2023/08/23 11:33:06;;;;;;;3.58;1.60;;;;;;;26.25;49.68;100596.37;1718375;82;21778;-56
2023/08/23 11:36:12;;;;;;;2.00;1.30;;;;;;;26.25;49.39;100599.19;1650294;86;21248;-56
2023/08/23 11:39:20;;;;;;;4.72;1.52;;;;;;;26.35;49.38;100599.24;1720833;82;21259;-56
2023/08/23 11:42:27;;;;;;;2.25;1.35;;;;;;;26.54;49.28;100593.97;1661062;84;21800;-56
2023/08/23 11:45:32;;;;;;;4.47;1.67;;;;;;;26.73;49.12;100590.43;1715697;82;21193;-55
2023/08/23 11:48:37;;;;;;;5.12;1.52;;;;;;;26.75;48.64;100589.57;1718458;82;21224;-55
2023/08/23 11:51:56;;;;;;;2.83;1.75;;;;;;;26.83;48.43;100592.42;1706088;83;21343;-56
2023/08/23 11:55:02;;;;;;;2.87;1.42;;;;;;;26.88;48.16;100591.86;1706295;83;21506;-55
2023/08/23 11:58:09;;;;;;;4.05;1.60;;;;;;;26.89;47.83;100580.06;1714959;82;21625;-55
2023/08/23 12:01:16;;;;;;;3.30;1.62;;;;;;;26.79;47.41;100585.10;1726341;82;21215;-55
2023/08/23 12:04:22;;;;;;;5.60;1.72;;;;;;;26.62;47.02;100577.45;1713496;82;21259;-55
2023/08/23 12:07:29;;;;;;;6.22;1.95;;;;;;;26.57;46.97;100581.64;1711401;82;21201;-56
2023/08/23 12:10:35;;;;;;;4.10;1.50;;;;;;;26.57;46.87;100572.35;1714243;82;21374;-55
2023/08/23 12:13:45;;;;;;;3.10;1.50;;;;;;;26.52;46.71;100572.33;1701675;82;21292;-55
2023/08/23 12:16:52;;;;;;;3.98;1.80;;;;;;;26.35;46.46;100576.20;1705701;82;21836;-56
2023/08/23 12:19:56;;;;;;;3.77;1.50;;;;;;;26.29;46.35;100579.29;1695461;83;21914;-55
2023/08/23 12:23:03;;;;;;;3.58;1.50;;;;;;;26.17;46.13;100570.23;1719872;83;21240;-55
2023/08/23 12:26:09;;;;;;;4.42;1.67;;;;;;;26.03;45.97;100574.66;1651240;85;21280;-55
2023/08/23 12:29:17;;;;;;;4.53;1.75;;;;;;;25.97;45.95;100571.50;1699340;83;21271;-54
2023/08/23 12:32:26;;;;;;;5.15;1.57;;;;;;;26.00;45.95;100575.20;1730873;82;21899;-57
2023/08/23 12:35:32;;;;;;;3.50;1.47;;;;;;;26.06;45.90;100576.91;1704333;82;21248;-55
2023/08/23 12:38:39;;;;;;;3.33;1.60;;;;;;;26.06;45.75;100572.70;1725668;81;21601;-55
2023/08/23 12:41:45;;;;;;;4.50;1.45;;;;;;;26.10;45.71;100571.05;1728322;82;21263;-57
2023/08/23 12:44:53;;;;;;;4.70;1.50;;;;;;;26.14;45.67;100563.22;1729396;82;21261;-55
2023/08/23 12:47:59;;;;;;;4.70;1.77;;;;;;;26.21;45.68;100562.97;1725335;80;21232;-55
2023/08/23 12:51:08;;;;;;;3.40;1.40;;;;;;;26.22;45.51;100567.45;1692228;83;21729;-56
2023/08/23 12:54:14;;;;;;;9.38;1.55;;;;;;;26.12;45.27;100562.63;1705255;84;21314;-55
2023/08/23 12:57:21;;;;;;;3.95;1.32;;;;;;;25.98;45.04;100578.80;1654744;85;21322;-55
2023/08/23 13:00:26;;;;;;;3.37;1.65;;;;;;;25.87;44.95;100558.81;1691904;84;21228;-55
2023/08/23 13:03:32;;;;;;;2.25;1.32;;;;;;;25.88;45.01;100563.29;1656581;84;21247;-56
2023/08/23 13:06:38;;;;;;;3.45;1.55;;;;;;;25.89;44.89;100546.22;1676906;84;21206;-56
2023/08/23 13:09:45;;;;;;;5.65;1.40;;;;;;;25.91;44.82;100558.57;1673381;84;21538;-56
2023/08/23 13:12:50;;;;;;;4.37;1.62;;;;;;;25.94;44.69;100559.42;1659799;84;21293;-56
2023/08/23 13:15:57;;;;;;;6.10;1.47;;;;;;;25.96;44.70;100550.16;1654450;85;21235;-53
2023/08/23 13:19:04;;;;;;;3.67;1.52;;;;;;;26.01;44.61;100549.67;1670649;85;21789;-55
2023/08/23 13:22:10;;;;;;;3.12;1.47;;;;;;;25.98;44.46;100543.72;1657138;85;21735;-56
2023/08/23 13:25:16;;;;;;;2.90;1.35;;;;;;;25.99;44.35;100544.02;1675268;84;21216;-56
2023/08/23 13:28:23;;;;;;;4.45;1.60;;;;;;;26.02;44.25;100547.72;1661299;83;21820;-55
2023/08/23 13:31:33;;;;;;;3.70;1.32;;;;;;;26.05;44.15;100547.17;1701192;83;21270;-55
2023/08/23 13:34:40;;;;;;;4.78;1.62;;;;;;;26.03;44.03;100548.84;1712019;82;21220;-55
2023/08/23 13:37:46;;;;;;;3.20;1.55;;;;;;;26.01;43.89;100546.86;1734099;82;21900;-55
2023/08/23 13:40:51;;;;;;;3.42;1.40;;;;;;;26.01;43.84;100547.41;1734851;81;21378;-55
2023/08/23 13:43:57;;;;;;;5.60;1.55;;;;;;;26.00;43.74;100544.33;1714345;82;21245;-57
2023/08/23 13:47:02;;;;;;;6.03;1.90;;;;;;;26.04;43.73;100545.46;1727991;81;21369;-56
2023/08/23 13:50:12;;;;;;;6.55;2.40;;;;;;;26.01;43.61;100538.45;1689843;82;21263;-59
2023/08/23 13:53:19;;;;;;;17.48;9.65;;;;;;;26.03;43.56;100542.37;1665626;83;21293;-56
2023/08/23 13:56:27;;;;;;;10.82;6.42;;;;;;;25.99;43.39;100535.61;1714021;81;21721;-55
2023/08/23 13:59:33;;;;;;;4.47;2.90;;;;;;;25.99;43.38;100539.23;1720464;82;21974;-54
2023/08/23 14:02:40;;;;;;;4.33;2.22;;;;;;;25.99;43.25;100531.40;1706046;82;21836;-55
2023/08/23 14:05:47;;;;;;;4.15;2.33;;;;;;;26.00;43.23;100530.30;1687764;81;21820;-57
2023/08/23 14:08:56;;;;;;;3.55;1.50;;;;;;;26.01;43.19;100526.36;1647526;85;21288;-57
2023/08/23 14:12:05;;;;;;;6.22;1.40;;;;;;;26.07;43.24;100523.86;1673296;83;21197;-56
2023/08/23 14:15:14;;;;;;;2.67;1.30;;;;;;;26.12;43.25;100523.89;1658389;85;21230;-56
2023/08/23 14:18:20;;;;;;;4.28;1.50;;;;;;;26.18;43.19;100527.00;1720086;82;21216;-56
2023/08/23 14:21:25;;;;;;;3.35;1.62;;;;;;;26.30;43.03;100524.81;1731459;82;21661;-56
2023/08/23 14:24:31;;;;;;;4.85;2.12;;;;;;;26.26;42.89;100527.88;1733654;82;21411;-55
2023/08/23 14:27:37;;;;;;;5.80;2.02;;;;;;;26.18;42.87;100530.66;1726683;82;21215;-55
2023/08/23 14:30:45;;;;;;;4.67;1.87;;;;;;;26.17;42.89;100530.38;1734473;82;21986;-55
2023/08/23 14:33:52;;;;;;;3.30;1.70;;;;;;;26.17;42.84;100530.94;1734658;82;21381;-56